Time;durP1;ratioP1;P1;durP2;ratioP2;P2;SDS_P1;SDS_P2;PMS_P1;PMS_P2;Temp;Humidity;BMP_temperature;BMP_pressure;BME280_temperature;BME280_humidity;BME280_pressure;Samples;Min_cycle;Max_cycle;Signal;HPM_P1;HPM_P2
2024/01/21 00:01:32;;;;;;;23.50;11.50;;;;;;;;;;4980920;28;20026;-77
2024/01/21 00:03:58;;;;;;;21.17;10.90;;;;;;;;;;4978696;28;20058;-75
2024/01/21 00:06:24;;;;;;;21.10;10.82;;;;;;;;;;4982850;28;20046;-75
2024/01/21 00:08:50;;;;;;;18.45;10.48;;;;;;;;;;4982225;28;20034;-75
2024/01/21 00:11:17;;;;;;;19.00;10.38;;;;;;;;;;4983215;28;20069;-75
2024/01/21 00:13:43;;;;;;;21.08;10.35;;;;;;;;;;4985142;28;20373;-76
2024/01/21 00:16:09;;;;;;;20.05;10.48;;;;;;;;;;4987561;28;20046;-75
2024/01/21 00:18:35;;;;;;;15.93;9.35;;;;;;;;;;4990923;28;20073;-75
2024/01/21 00:21:01;;;;;;;17.15;9.45;;;;;;;;;;4991300;28;20084;-78
2024/01/21 00:23:27;;;;;;;17.90;9.48;;;;;;;;;;4989273;28;20031;-75
2024/01/21 00:25:53;;;;;;;15.60;8.88;;;;;;;;;;4991486;28;20069;-78
2024/01/21 00:28:20;;;;;;;21.92;9.18;;;;;;;;;;4994476;28;20026;-76
2024/01/21 00:30:46;;;;;;;21.65;10.02;;;;;;;;;;4990766;28;20604;-75
2024/01/21 00:33:12;;;;;;;19.35;9.93;;;;;;;;;;4961223;28;20030;-75
2024/01/21 00:35:38;;;;;;;19.20;9.85;;;;;;;;;;4991444;28;20035;-76
2024/01/21 00:38:04;;;;;;;19.85;10.05;;;;;;;;;;4987759;28;20084;-75
2024/01/21 00:40:31;;;;;;;22.85;10.07;;;;;;;;;;5016595;28;20058;-75
2024/01/21 00:42:59;;;;;;;22.23;10.13;;;;;;;;;;4990134;28;20026;-76
2024/01/21 00:45:28;;;;;;;18.90;9.40;;;;;;;;;;4991209;28;20046;-75
2024/01/21 00:47:54;;;;;;;20.42;9.65;;;;;;;;;;4989518;28;20084;-77
2024/01/21 00:50:22;;;;;;;17.80;9.00;;;;;;;;;;4992608;28;20046;-75
2024/01/21 00:52:49;;;;;;;20.27;8.63;;;;;;;;;;4993996;28;20038;-76
2024/01/21 00:55:16;;;;;;;20.30;9.38;;;;;;;;;;4992075;28;20031;-75
2024/01/21 00:57:42;;;;;;;19.80;8.88;;;;;;;;;;4989769;28;20023;-76
2024/01/21 01:00:08;;;;;;;24.17;9.98;;;;;;;;;;4988473;28;20056;-76
2024/01/21 01:02:34;;;;;;;18.63;9.52;;;;;;;;;;4988801;28;20043;-77
2024/01/21 01:05:00;;;;;;;19.83;9.00;;;;;;;;;;4991504;28;20158;-75
2024/01/21 01:07:27;;;;;;;18.15;9.27;;;;;;;;;;4992771;28;20034;-75
2024/01/21 01:09:53;;;;;;;26.35;10.75;;;;;;;;;;4991254;28;20030;-76
2024/01/21 01:12:19;;;;;;;18.85;8.80;;;;;;;;;;4988457;28;20581;-75
2024/01/21 01:14:45;;;;;;;17.75;8.93;;;;;;;;;;5010123;28;20057;-76
2024/01/21 01:17:16;;;;;;;15.38;8.30;;;;;;;;;;4988144;28;20023;-76
2024/01/21 01:19:42;;;;;;;15.20;7.57;;;;;;;;;;4990523;28;20050;-76
2024/01/21 01:22:09;;;;;;;14.77;7.72;;;;;;;;;;4995545;28;20109;-76
2024/01/21 01:24:36;;;;;;;12.10;7.13;;;;;;;;;;4990870;28;20045;-77
2024/01/21 01:27:02;;;;;;;14.85;7.40;;;;;;;;;;4983945;28;20031;-76
2024/01/21 01:29:28;;;;;;;13.40;7.38;;;;;;;;;;4987730;28;20478;-76
2024/01/21 01:31:55;;;;;;;12.02;6.22;;;;;;;;;;4988988;28;20031;-75
2024/01/21 01:34:21;;;;;;;12.10;6.20;;;;;;;;;;4985544;28;20031;-76
2024/01/21 01:36:47;;;;;;;11.30;6.22;;;;;;;;;;4987054;28;20021;-76
2024/01/21 01:39:13;;;;;;;13.20;6.40;;;;;;;;;;4985648;28;20504;-76
2024/01/21 01:41:39;;;;;;;12.07;5.78;;;;;;;;;;4989472;28;20030;-78
2024/01/21 01:44:05;;;;;;;11.77;5.78;;;;;;;;;;4986030;28;20034;-76
2024/01/21 01:46:32;;;;;;;14.38;6.20;;;;;;;;;;4986361;28;20034;-76
2024/01/21 01:48:59;;;;;;;11.75;6.35;;;;;;;;;;4986539;28;20420;-76
2024/01/21 01:51:25;;;;;;;11.55;5.70;;;;;;;;;;4988951;28;20137;-76
2024/01/21 01:53:51;;;;;;;11.02;5.63;;;;;;;;;;4988065;28;20027;-75
2024/01/21 01:56:17;;;;;;;10.02;5.63;;;;;;;;;;4989610;28;20030;-77
2024/01/21 01:58:44;;;;;;;9.90;5.25;;;;;;;;;;4983255;28;20038;-76
2024/01/21 02:01:10;;;;;;;11.30;5.53;;;;;;;;;;4987794;28;20088;-76
2024/01/21 02:03:36;;;;;;;11.57;5.65;;;;;;;;;;4984184;28;20053;-76
2024/01/21 02:06:02;;;;;;;9.73;5.20;;;;;;;;;;4984968;28;20046;-76
2024/01/21 02:08:28;;;;;;;9.85;5.25;;;;;;;;;;4984068;28;20022;-80
2024/01/21 02:10:55;;;;;;;11.38;5.40;;;;;;;;;;4985727;28;20038;-76
2024/01/21 02:13:21;;;;;;;10.48;4.93;;;;;;;;;;5007477;28;20031;-76
2024/01/21 02:15:47;;;;;;;10.38;5.13;;;;;;;;;;5011299;28;20084;-76
2024/01/21 02:18:14;;;;;;;10.98;5.35;;;;;;;;;;5008809;28;20072;-75
2024/01/21 02:20:40;;;;;;;12.32;5.72;;;;;;;;;;4986546;28;20030;-77
2024/01/21 02:23:10;;;;;;;10.30;5.70;;;;;;;;;;4987732;28;20026;-78
2024/01/21 02:25:36;;;;;;;7.28;4.57;;;;;;;;;;4987319;28;20092;-76
2024/01/21 02:28:02;;;;;;;8.93;4.68;;;;;;;;;;4983072;28;20034;-76
2024/01/21 02:30:28;;;;;;;8.85;4.78;;;;;;;;;;4983659;28;20085;-76
2024/01/21 02:32:54;;;;;;;8.75;4.72;;;;;;;;;;4989833;28;20045;-76
2024/01/21 02:35:21;;;;;;;10.65;5.60;;;;;;;;;;5010208;28;20045;-76
2024/01/21 02:37:47;;;;;;;9.43;5.30;;;;;;;;;;4987734;28;20042;-76
2024/01/21 02:40:13;;;;;;;12.32;6.10;;;;;;;;;;4987218;28;20041;-76
2024/01/21 02:42:39;;;;;;;9.90;6.03;;;;;;;;;;4981804;28;20054;-76
2024/01/21 02:45:05;;;;;;;10.40;5.47;;;;;;;;;;5010454;28;20027;-77
2024/01/21 02:47:32;;;;;;;10.52;6.10;;;;;;;;;;4985248;28;20121;-77
2024/01/21 02:49:58;;;;;;;11.20;5.53;;;;;;;;;;4988761;28;20085;-76
2024/01/21 02:52:24;;;;;;;11.20;6.22;;;;;;;;;;4989788;28;20038;-76
2024/01/21 02:54:50;;;;;;;10.00;5.70;;;;;;;;;;4983934;28;20496;-76
2024/01/21 02:57:16;;;;;;;10.82;6.30;;;;;;;;;;4985081;28;20026;-75
2024/01/21 02:59:42;;;;;;;13.30;5.95;;;;;;;;;;4985004;28;20164;-77
2024/01/21 03:02:08;;;;;;;11.25;5.25;;;;;;;;;;4985589;28;20109;-77
2024/01/21 03:04:35;;;;;;;11.85;5.75;;;;;;;;;;4987193;28;20038;-77
2024/01/21 03:07:01;;;;;;;13.13;6.13;;;;;;;;;;4985819;28;20035;-76
2024/01/21 03:09:30;;;;;;;9.77;5.97;;;;;;;;;;4986449;28;20113;-82
2024/01/21 03:11:56;;;;;;;10.10;5.63;;;;;;;;;;4989474;28;20039;-77
2024/01/21 03:14:22;;;;;;;11.85;6.25;;;;;;;;;;4987191;28;20046;-77
2024/01/21 03:16:48;;;;;;;9.75;5.60;;;;;;;;;;5012733;28;20026;-76
2024/01/21 03:19:15;;;;;;;10.00;5.47;;;;;;;;;;4988280;28;20095;-76
2024/01/21 03:21:41;;;;;;;10.88;5.60;;;;;;;;;;4986999;28;20034;-77
2024/01/21 03:24:07;;;;;;;10.45;5.55;;;;;;;;;;5010708;28;20122;-78
2024/01/21 03:26:33;;;;;;;11.85;6.13;;;;;;;;;;5015094;28;20109;-77
2024/01/21 03:28:59;;;;;;;9.07;5.22;;;;;;;;;;4983772;28;20092;-76
2024/01/21 03:31:28;;;;;;;9.55;5.30;;;;;;;;;;5014195;28;20045;-76
2024/01/21 03:33:54;;;;;;;9.30;5.47;;;;;;;;;;5013416;28;20061;-78
2024/01/21 03:36:20;;;;;;;10.02;5.00;;;;;;;;;;4987890;28;20105;-76
2024/01/21 03:38:50;;;;;;;12.13;5.28;;;;;;;;;;4983432;28;20483;-76
2024/01/21 03:41:17;;;;;;;9.98;5.20;;;;;;;;;;5011151;28;20038;-76
2024/01/21 03:43:43;;;;;;;9.32;5.30;;;;;;;;;;4998318;28;20035;-76
2024/01/21 03:46:09;;;;;;;8.88;5.30;;;;;;;;;;5015856;28;20408;-75
2024/01/21 03:48:35;;;;;;;9.90;4.97;;;;;;;;;;4989980;28;20038;-77
2024/01/21 03:51:02;;;;;;;8.13;4.93;;;;;;;;;;4989132;28;20121;-75
2024/01/21 03:53:28;;;;;;;11.65;5.00;;;;;;;;;;4987148;28;20030;-76
2024/01/21 03:55:55;;;;;;;9.45;5.10;;;;;;;;;;4982924;28;20027;-77
2024/01/21 03:58:21;;;;;;;11.63;5.47;;;;;;;;;;5014540;28;20027;-76
2024/01/21 04:00:47;;;;;;;8.93;5.45;;;;;;;;;;4983354;28;20022;-76
2024/01/21 04:03:13;;;;;;;9.75;5.28;;;;;;;;;;4981319;28;20030;-77
2024/01/21 04:05:39;;;;;;;12.23;5.18;;;;;;;;;;4987307;28;20034;-76
2024/01/21 04:08:06;;;;;;;9.02;5.10;;;;;;;;;;5012186;28;20034;-76
2024/01/21 04:10:32;;;;;;;9.88;5.32;;;;;;;;;;4981820;28;20034;-77
2024/01/21 04:12:59;;;;;;;10.63;5.32;;;;;;;;;;4980630;28;20023;-78
2024/01/21 04:15:25;;;;;;;10.18;5.75;;;;;;;;;;4981120;28;20039;-77
2024/01/21 04:17:51;;;;;;;9.70;4.95;;;;;;;;;;4983957;28;20547;-76
2024/01/21 04:20:17;;;;;;;10.20;5.10;;;;;;;;;;4981580;28;20054;-76
2024/01/21 04:22:44;;;;;;;13.35;5.78;;;;;;;;;;4985200;28;20145;-77
2024/01/21 04:25:10;;;;;;;11.52;6.50;;;;;;;;;;4985247;28;20038;-76
2024/01/21 04:27:36;;;;;;;11.88;5.05;;;;;;;;;;5000774;28;20579;-75
2024/01/21 04:30:03;;;;;;;10.25;5.53;;;;;;;;;;4971200;28;20034;-80
2024/01/21 04:32:29;;;;;;;9.32;4.97;;;;;;;;;;4971934;28;20125;-77
2024/01/21 04:34:55;;;;;;;9.82;5.30;;;;;;;;;;4967198;28;20038;-77
2024/01/21 04:37:21;;;;;;;11.32;5.65;;;;;;;;;;5025037;28;20031;-76
2024/01/21 04:39:47;;;;;;;10.18;5.18;;;;;;;;;;4998491;28;20031;-76
2024/01/21 04:42:14;;;;;;;10.60;5.70;;;;;;;;;;4989373;28;20057;-76
2024/01/21 04:44:41;;;;;;;9.77;5.45;;;;;;;;;;4984587;28;20038;-77
2024/01/21 04:47:07;;;;;;;11.55;6.03;;;;;;;;;;4983488;28;20137;-77
2024/01/21 04:49:33;;;;;;;13.98;6.68;;;;;;;;;;4987866;28;20042;-78
2024/01/21 04:51:59;;;;;;;10.57;5.85;;;;;;;;;;4983834;28;20031;-78
2024/01/21 04:54:26;;;;;;;11.93;6.07;;;;;;;;;;4984922;28;20073;-77
2024/01/21 04:56:52;;;;;;;10.07;5.68;;;;;;;;;;4985643;28;20129;-76
2024/01/21 04:59:18;;;;;;;10.05;6.15;;;;;;;;;;4988051;28;20130;-75
2024/01/21 05:01:48;;;;;;;11.18;5.72;;;;;;;;;;4987163;28;20054;-77
2024/01/21 05:04:14;;;;;;;12.00;6.05;;;;;;;;;;4985384;28;20034;-78
2024/01/21 05:06:40;;;;;;;12.50;6.53;;;;;;;;;;5010494;28;20058;-75
2024/01/21 05:09:06;;;;;;;12.55;6.72;;;;;;;;;;4989476;28;20034;-76
2024/01/21 05:11:33;;;;;;;12.27;6.30;;;;;;;;;;4989279;28;20133;-78
2024/01/21 05:13:59;;;;;;;14.93;7.25;;;;;;;;;;4990389;28;20042;-79
2024/01/21 05:16:25;;;;;;;13.80;6.45;;;;;;;;;;4989494;28;20069;-77
2024/01/21 05:18:52;;;;;;;14.75;7.70;;;;;;;;;;4984591;28;20121;-78
2024/01/21 05:21:20;;;;;;;12.70;6.57;;;;;;;;;;4986946;28;20101;-77
2024/01/21 05:23:49;;;;;;;12.40;6.72;;;;;;;;;;4988535;28;20022;-77
2024/01/21 05:26:15;;;;;;;15.18;6.80;;;;;;;;;;4988525;28;20030;-78
2024/01/21 05:28:41;;;;;;;14.20;6.60;;;;;;;;;;4986098;28;20126;-78
2024/01/21 05:31:08;;;;;;;13.52;6.82;;;;;;;;;;4989442;28;20113;-77
2024/01/21 05:33:38;;;;;;;13.85;6.85;;;;;;;;;;4988486;28;20042;-78
2024/01/21 05:36:04;;;;;;;13.23;7.13;;;;;;;;;;4988541;28;20033;-77
2024/01/21 05:38:32;;;;;;;13.20;6.82;;;;;;;;;;4990158;28;20496;-76
2024/01/21 05:40:58;;;;;;;13.80;7.03;;;;;;;;;;4987650;28;20039;-78
2024/01/21 05:43:24;;;;;;;11.27;6.85;;;;;;;;;;4991730;28;20153;-77
2024/01/21 05:45:50;;;;;;;14.25;6.80;;;;;;;;;;4986476;28;20070;-76
2024/01/21 05:48:16;;;;;;;13.45;6.95;;;;;;;;;;4988707;28;20026;-76
2024/01/21 05:50:43;;;;;;;12.45;6.68;;;;;;;;;;4987351;28;20050;-77
2024/01/21 05:53:09;;;;;;;14.10;7.15;;;;;;;;;;4984998;28;20031;-77
2024/01/21 05:55:35;;;;;;;14.02;7.55;;;;;;;;;;5003568;28;20041;-77
2024/01/21 05:58:01;;;;;;;15.32;7.05;;;;;;;;;;4984205;28;20027;-76
2024/01/21 06:00:28;;;;;;;15.32;7.45;;;;;;;;;;4989499;28;20034;-82
2024/01/21 06:02:54;;;;;;;13.85;7.68;;;;;;;;;;4989453;28;20030;-77
2024/01/21 06:05:20;;;;;;;13.23;7.47;;;;;;;;;;4985473;28;20042;-76
2024/01/21 06:07:47;;;;;;;12.20;6.88;;;;;;;;;;4991290;28;20031;-75
2024/01/21 06:10:13;;;;;;;15.32;7.10;;;;;;;;;;4986017;28;20108;-76
2024/01/21 06:12:39;;;;;;;12.93;7.40;;;;;;;;;;4987999;28;20073;-77
2024/01/21 06:15:05;;;;;;;14.13;7.38;;;;;;;;;;4988544;28;20061;-76
2024/01/21 06:17:31;;;;;;;13.27;6.93;;;;;;;;;;5011807;28;20031;-79
2024/01/21 06:19:58;;;;;;;13.07;7.72;;;;;;;;;;4989443;28;20038;-78
2024/01/21 06:22:24;;;;;;;13.30;6.65;;;;;;;;;;4987819;28;20030;-77
2024/01/21 06:24:50;;;;;;;16.15;7.55;;;;;;;;;;4989579;28;20035;-77
2024/01/21 06:27:16;;;;;;;13.27;7.05;;;;;;;;;;4985015;28;20066;-76
2024/01/21 06:29:46;;;;;;;12.32;6.90;;;;;;;;;;4997074;28;20131;-77
2024/01/21 06:32:12;;;;;;;12.60;6.75;;;;;;;;;;4980291;28;20035;-76
2024/01/21 06:34:38;;;;;;;12.00;7.22;;;;;;;;;;4984966;28;20022;-78
2024/01/21 06:37:05;;;;;;;13.48;7.03;;;;;;;;;;4984515;28;20026;-77
2024/01/21 06:39:31;;;;;;;12.20;7.00;;;;;;;;;;4982232;28;20031;-77
2024/01/21 06:41:58;;;;;;;14.18;7.22;;;;;;;;;;4985707;28;20022;-76
2024/01/21 06:44:24;;;;;;;15.65;7.50;;;;;;;;;;5014880;28;20113;-78
2024/01/21 06:46:50;;;;;;;16.75;7.18;;;;;;;;;;4988642;28;20433;-77
2024/01/21 06:49:16;;;;;;;15.95;7.72;;;;;;;;;;4988488;28;20046;-77
2024/01/21 06:51:46;;;;;;;13.50;7.05;;;;;;;;;;4994747;28;20062;-77
2024/01/21 06:54:13;;;;;;;13.60;7.60;;;;;;;;;;4989868;28;20046;-77
2024/01/21 06:56:39;;;;;;;13.07;7.43;;;;;;;;;;4985956;28;20316;-77
2024/01/21 06:59:06;;;;;;;14.30;7.35;;;;;;;;;;4979474;28;20030;-77
2024/01/21 07:01:32;;;;;;;14.45;6.85;;;;;;;;;;4986271;28;20080;-76
2024/01/21 07:03:58;;;;;;;14.70;7.28;;;;;;;;;;5013863;28;20034;-76
2024/01/21 07:06:24;;;;;;;13.48;7.47;;;;;;;;;;4970850;28;20492;-78
2024/01/21 07:08:50;;;;;;;13.40;6.88;;;;;;;;;;5007909;28;20038;-77
2024/01/21 07:11:16;;;;;;;15.90;7.47;;;;;;;;;;4984503;28;20039;-77
2024/01/21 07:13:43;;;;;;;13.75;6.93;;;;;;;;;;4986706;28;20038;-76
2024/01/21 07:16:09;;;;;;;14.43;7.07;;;;;;;;;;4987106;28;20138;-75
2024/01/21 07:18:35;;;;;;;16.23;7.68;;;;;;;;;;4986394;28;20027;-77
2024/01/21 07:21:02;;;;;;;13.48;6.70;;;;;;;;;;4984392;28;20082;-77
2024/01/21 07:23:28;;;;;;;14.45;8.07;;;;;;;;;;4987580;28;20459;-76
2024/01/21 07:25:54;;;;;;;14.52;7.43;;;;;;;;;;4988011;28;20045;-77
2024/01/21 07:28:20;;;;;;;10.73;7.05;;;;;;;;;;4983452;28;20029;-77
2024/01/21 07:30:46;;;;;;;15.88;7.38;;;;;;;;;;4986592;28;20048;-75
2024/01/21 07:33:13;;;;;;;14.98;7.85;;;;;;;;;;4983657;28;20180;-75
2024/01/21 07:35:39;;;;;;;12.25;6.93;;;;;;;;;;5011059;28;20039;-77
2024/01/21 07:38:05;;;;;;;12.30;6.88;;;;;;;;;;4985029;28;20096;-77
2024/01/21 07:40:31;;;;;;;14.90;7.57;;;;;;;;;;4986094;28;20034;-76
2024/01/21 07:42:58;;;;;;;15.18;6.90;;;;;;;;;;4988468;28;20038;-77
2024/01/21 07:45:24;;;;;;;15.48;7.90;;;;;;;;;;4981556;28;20046;-75
2024/01/21 07:47:51;;;;;;;11.27;6.28;;;;;;;;;;4980384;28;20510;-77
2024/01/21 07:50:17;;;;;;;13.77;6.53;;;;;;;;;;4977176;28;20036;-77
2024/01/21 07:52:44;;;;;;;13.70;7.50;;;;;;;;;;4981273;28;20093;-77
2024/01/21 07:55:10;;;;;;;13.55;7.32;;;;;;;;;;4981330;28;20039;-77
2024/01/21 07:57:36;;;;;;;13.32;7.60;;;;;;;;;;4987709;28;20491;-76
2024/01/21 08:00:04;;;;;;;14.77;7.65;;;;;;;;;;4984675;28;20093;-77
2024/01/21 08:02:31;;;;;;;12.45;7.40;;;;;;;;;;4986701;28;20031;-77
2024/01/21 08:04:59;;;;;;;13.85;7.38;;;;;;;;;;4985357;28;20084;-77
2024/01/21 08:07:26;;;;;;;11.40;7.28;;;;;;;;;;4985134;28;20030;-77
2024/01/21 08:09:52;;;;;;;14.60;7.50;;;;;;;;;;4984025;28;20052;-76
2024/01/21 08:12:19;;;;;;;12.40;7.45;;;;;;;;;;4983943;28;20036;-77
2024/01/21 08:14:45;;;;;;;15.23;7.85;;;;;;;;;;4987405;28;20042;-76
2024/01/21 08:17:11;;;;;;;15.02;7.40;;;;;;;;;;4982913;28;20038;-77
2024/01/21 08:19:38;;;;;;;13.85;7.28;;;;;;;;;;4982475;28;20121;-77
2024/01/21 08:22:04;;;;;;;14.07;6.90;;;;;;;;;;4985944;28;20057;-75
2024/01/21 08:24:31;;;;;;;15.68;7.70;;;;;;;;;;4966941;28;20133;-76
2024/01/21 08:26:58;;;;;;;15.77;6.90;;;;;;;;;;4984494;28;20037;-77
2024/01/21 08:29:24;;;;;;;12.80;6.97;;;;;;;;;;4985633;28;20037;-78
2024/01/21 08:31:50;;;;;;;12.13;7.55;;;;;;;;;;4987486;28;20061;-77
2024/01/21 08:34:17;;;;;;;12.15;6.95;;;;;;;;;;4984011;28;20034;-79
2024/01/21 08:36:43;;;;;;;11.75;7.18;;;;;;;;;;4982315;28;20027;-77
2024/01/21 08:39:09;;;;;;;12.52;7.10;;;;;;;;;;4987161;28;20034;-78
2024/01/21 08:41:35;;;;;;;13.18;7.97;;;;;;;;;;5008639;28;20109;-78
2024/01/21 08:44:04;;;;;;;14.50;7.78;;;;;;;;;;4988702;28;20089;-78
2024/01/21 08:46:31;;;;;;;14.65;7.47;;;;;;;;;;4988593;28;20050;-79
2024/01/21 08:48:57;;;;;;;17.08;7.55;;;;;;;;;;4988511;28;20027;-76
2024/01/21 08:51:23;;;;;;;13.73;7.22;;;;;;;;;;4997904;28;20056;-80
2024/01/21 08:53:56;;;;;;;17.50;8.18;;;;;;;;;;4973422;28;20069;-80
2024/01/21 08:56:25;;;;;;;13.80;8.38;;;;;;;;;;4990773;28;20038;-78
2024/01/21 08:58:52;;;;;;;12.52;7.50;;;;;;;;;;4986793;28;20129;-77
2024/01/21 09:01:18;;;;;;;14.85;8.00;;;;;;;;;;4989449;28;20031;-77
2024/01/21 09:03:45;;;;;;;16.77;9.02;;;;;;;;;;4993866;28;20114;-79
2024/01/21 09:06:11;;;;;;;14.13;7.97;;;;;;;;;;4987879;28;20085;-78
2024/01/21 09:08:37;;;;;;;13.32;7.95;;;;;;;;;;4989313;28;20644;-76
2024/01/21 09:11:03;;;;;;;12.63;8.07;;;;;;;;;;4984149;28;20097;-77
2024/01/21 09:13:29;;;;;;;17.35;8.23;;;;;;;;;;5013720;28;20073;-76
2024/01/21 09:15:56;;;;;;;13.70;7.97;;;;;;;;;;5010245;28;20041;-75
2024/01/21 09:18:22;;;;;;;13.75;7.75;;;;;;;;;;4996295;28;20040;-77
2024/01/21 09:20:48;;;;;;;12.25;7.95;;;;;;;;;;4987770;28;20058;-77
2024/01/21 09:23:15;;;;;;;16.65;8.77;;;;;;;;;;5011684;28;20129;-76
2024/01/21 09:25:41;;;;;;;14.75;8.43;;;;;;;;;;4987200;28;20034;-78
2024/01/21 09:28:07;;;;;;;16.13;8.95;;;;;;;;;;4987941;28;20026;-77
2024/01/21 09:30:33;;;;;;;12.52;7.28;;;;;;;;;;4989658;28;20100;-76
2024/01/21 09:33:00;;;;;;;14.93;8.77;;;;;;;;;;4987736;28;20041;-78
2024/01/21 09:35:26;;;;;;;17.55;8.60;;;;;;;;;;5010718;28;20049;-76
2024/01/21 09:37:52;;;;;;;15.70;8.38;;;;;;;;;;4993340;28;20037;-78
2024/01/21 09:40:19;;;;;;;12.93;8.52;;;;;;;;;;4989118;28;20034;-78
2024/01/21 09:42:45;;;;;;;15.90;8.07;;;;;;;;;;4987078;28;20034;-76
2024/01/21 09:45:12;;;;;;;14.60;8.52;;;;;;;;;;4983718;28;20424;-78
2024/01/21 09:47:38;;;;;;;15.07;8.82;;;;;;;;;;4988947;28;20071;-78
2024/01/21 09:50:05;;;;;;;15.13;9.18;;;;;;;;;;4987817;28;20035;-78
2024/01/21 09:52:32;;;;;;;13.05;8.02;;;;;;;;;;5006113;28;20039;-77
2024/01/21 09:54:59;;;;;;;14.73;8.93;;;;;;;;;;4984605;28;20451;-76
2024/01/21 09:57:25;;;;;;;13.90;8.18;;;;;;;;;;5001352;28;20027;-76
2024/01/21 09:59:51;;;;;;;13.55;8.38;;;;;;;;;;4988911;28;20050;-77
2024/01/21 10:02:17;;;;;;;14.82;8.75;;;;;;;;;;4985826;28;20108;-78
2024/01/21 10:04:44;;;;;;;14.18;8.32;;;;;;;;;;4980870;28;20040;-78
2024/01/21 10:07:12;;;;;;;13.75;8.60;;;;;;;;;;4992187;28;20035;-80
2024/01/21 10:09:38;;;;;;;14.52;9.10;;;;;;;;;;4989606;28;20423;-78
2024/01/21 10:12:05;;;;;;;16.85;9.65;;;;;;;;;;4989074;28;20033;-78
2024/01/21 10:14:34;;;;;;;16.17;9.23;;;;;;;;;;4983778;28;20023;-78
2024/01/21 10:17:00;;;;;;;14.50;9.07;;;;;;;;;;4988102;28;20022;-78
2024/01/21 10:19:31;;;;;;;14.80;9.35;;;;;;;;;;4987570;28;20066;-77
2024/01/21 10:22:14;;;;;;;13.35;7.95;;;;;;;;;;4987160;28;20486;-77
2024/01/21 10:24:49;;;;;;;18.10;10.10;;;;;;;;;;4989682;28;20037;-77
2024/01/21 10:27:18;;;;;;;16.10;8.95;;;;;;;;;;4982654;28;20046;-76
2024/01/21 10:29:45;;;;;;;15.40;9.70;;;;;;;;;;4988460;28;20038;-77
2024/01/21 10:32:12;;;;;;;20.55;10.25;;;;;;;;;;4992988;28;20037;-78
2024/01/21 10:34:42;;;;;;;19.13;9.52;;;;;;;;;;4975585;28;20034;-80
2024/01/21 10:37:08;;;;;;;17.13;9.98;;;;;;;;;;4988380;28;20026;-77
2024/01/21 10:39:37;;;;;;;17.92;9.98;;;;;;;;;;4985617;28;20034;-78
2024/01/21 10:42:07;;;;;;;31.92;13.00;;;;;;;;;;4981587;28;20093;-79
2024/01/21 10:44:35;;;;;;;21.88;12.82;;;;;;;;;;4972348;28;20026;-78
2024/01/21 10:47:02;;;;;;;19.40;12.13;;;;;;;;;;4989222;28;20098;-78
2024/01/21 10:49:31;;;;;;;16.15;9.93;;;;;;;;;;4992132;28;20053;-79
2024/01/21 10:51:57;;;;;;;23.65;10.82;;;;;;;;;;4985382;28;20041;-78
2024/01/21 10:54:25;;;;;;;14.32;9.35;;;;;;;;;;4971609;28;20100;-79
2024/01/21 10:56:54;;;;;;;24.63;14.25;;;;;;;;;;4985962;28;20031;-78
2024/01/21 10:59:21;;;;;;;16.88;11.70;;;;;;;;;;5020347;28;20042;-77
2024/01/21 11:01:49;;;;;;;16.23;10.05;;;;;;;;;;4977826;28;20042;-76
2024/01/21 11:04:16;;;;;;;17.20;10.57;;;;;;;;;;4972869;28;20026;-77
2024/01/21 11:06:46;;;;;;;16.38;9.70;;;;;;;;;;4985640;28;20034;-78
2024/01/21 11:09:14;;;;;;;14.68;9.80;;;;;;;;;;4998074;28;20030;-76
2024/01/21 11:11:44;;;;;;;16.80;9.70;;;;;;;;;;4994604;28;20030;-78
2024/01/21 11:14:30;;;;;;;16.83;9.80;;;;;;;;;;4976042;28;20034;-78
2024/01/21 11:16:57;;;;;;;17.52;9.80;;;;;;;;;;5004864;28;20039;-77
2024/01/21 11:19:24;;;;;;;15.50;9.45;;;;;;;;;;4973098;28;20027;-79
2024/01/21 11:21:55;;;;;;;17.45;10.10;;;;;;;;;;4985505;28;20050;-76
2024/01/21 11:24:28;;;;;;;20.88;10.60;;;;;;;;;;4990422;28;20531;-77
2024/01/21 11:26:54;;;;;;;23.63;11.18;;;;;;;;;;4980629;28;20069;-78
2024/01/21 11:29:25;;;;;;;18.60;10.55;;;;;;;;;;4994802;28;20096;-77
2024/01/21 11:31:54;;;;;;;28.45;13.73;;;;;;;;;;4992904;28;20064;-77
2024/01/21 11:34:24;;;;;;;39.33;16.38;;;;;;;;;;4990610;28;20125;-77
2024/01/21 11:36:51;;;;;;;37.42;16.58;;;;;;;;;;4990663;28;20030;-77
2024/01/21 11:39:24;;;;;;;37.15;17.45;;;;;;;;;;4988321;28;20125;-77
2024/01/21 11:41:50;;;;;;;24.33;13.63;;;;;;;;;;4991544;28;20027;-78
2024/01/21 11:44:26;;;;;;;28.73;14.93;;;;;;;;;;4992925;28;20037;-77
2024/01/21 11:46:57;;;;;;;17.17;11.27;;;;;;;;;;4982856;28;20035;-78
2024/01/21 11:49:23;;;;;;;18.92;10.88;;;;;;;;;;4984143;28;20026;-77
2024/01/21 11:51:50;;;;;;;22.75;11.77;;;;;;;;;;5016428;28;20118;-77
2024/01/21 11:54:16;;;;;;;15.48;10.18;;;;;;;;;;4970449;28;20034;-77
2024/01/21 11:56:43;;;;;;;22.77;10.52;;;;;;;;;;4974691;28;20765;-77
2024/01/21 11:59:10;;;;;;;20.05;11.82;;;;;;;;;;4988750;28;20041;-77
2024/01/21 12:01:37;;;;;;;17.48;10.52;;;;;;;;;;5018077;28;20022;-77
2024/01/21 12:04:04;;;;;;;20.42;10.30;;;;;;;;;;4987797;28;20030;-76
2024/01/21 12:06:34;;;;;;;21.15;11.40;;;;;;;;;;4975491;28;20099;-77
2024/01/21 12:09:00;;;;;;;18.80;9.57;;;;;;;;;;4989528;28;20022;-77
2024/01/21 12:11:27;;;;;;;16.48;10.25;;;;;;;;;;4975879;28;20456;-77
2024/01/21 12:13:53;;;;;;;15.60;10.23;;;;;;;;;;4990976;28;20085;-76
2024/01/21 12:16:19;;;;;;;17.70;9.70;;;;;;;;;;4976442;28;20031;-76
2024/01/21 12:18:48;;;;;;;23.50;11.48;;;;;;;;;;4991116;28;20057;-76
2024/01/21 12:21:15;;;;;;;19.00;11.30;;;;;;;;;;4990625;28;20496;-77
2024/01/21 12:23:43;;;;;;;24.58;11.40;;;;;;;;;;4972119;28;20058;-77
2024/01/21 12:26:15;;;;;;;20.33;12.57;;;;;;;;;;4976248;28;20042;-75
2024/01/21 12:28:53;;;;;;;20.10;12.35;;;;;;;;;;5007791;28;20027;-76
2024/01/21 12:31:20;;;;;;;22.80;12.82;;;;;;;;;;4986680;28;20031;-78
2024/01/21 12:33:47;;;;;;;21.67;11.57;;;;;;;;;;4973382;28;20049;-78
2024/01/21 12:36:13;;;;;;;21.98;11.48;;;;;;;;;;5012018;28;20106;-77
2024/01/21 12:38:41;;;;;;;41.53;17.23;;;;;;;;;;5020325;28;20045;-77
2024/01/21 12:41:07;;;;;;;20.05;11.02;;;;;;;;;;5006669;28;20041;-76
2024/01/21 12:43:34;;;;;;;23.83;11.60;;;;;;;;;;4970448;28;20027;-76
2024/01/21 12:46:00;;;;;;;24.45;12.15;;;;;;;;;;4977862;28;20034;-76
2024/01/21 12:48:26;;;;;;;21.00;12.82;;;;;;;;;;4973406;28;20118;-77
2024/01/21 12:50:55;;;;;;;20.35;11.80;;;;;;;;;;4985439;28;20045;-78
2024/01/21 12:53:25;;;;;;;22.80;11.43;;;;;;;;;;4983803;28;20057;-77
2024/01/21 12:55:51;;;;;;;20.23;11.68;;;;;;;;;;4970064;28;20066;-77
2024/01/21 12:58:17;;;;;;;21.65;11.38;;;;;;;;;;4972567;28;20066;-80
2024/01/21 13:00:43;;;;;;;20.58;11.02;;;;;;;;;;4976637;28;20034;-77
2024/01/21 13:03:10;;;;;;;21.55;9.95;;;;;;;;;;4990956;28;20042;-76
2024/01/21 13:05:36;;;;;;;23.25;11.60;;;;;;;;;;4982850;28;20042;-76
2024/01/21 13:08:06;;;;;;;25.02;11.30;;;;;;;;;;4968689;28;20027;-75
2024/01/21 13:10:32;;;;;;;23.92;11.52;;;;;;;;;;4968436;28;20031;-77
2024/01/21 13:12:58;;;;;;;21.10;10.95;;;;;;;;;;4988359;28;20054;-76
2024/01/21 13:15:24;;;;;;;26.35;11.95;;;;;;;;;;5015063;28;20039;-78
2024/01/21 13:17:50;;;;;;;21.55;10.85;;;;;;;;;;5011015;28;20069;-77
2024/01/21 13:20:17;;;;;;;22.33;12.98;;;;;;;;;;5009634;28;20039;-77
2024/01/21 13:22:44;;;;;;;20.67;11.75;;;;;;;;;;4974581;28;20042;-78
2024/01/21 13:25:11;;;;;;;24.10;11.23;;;;;;;;;;4986562;28;20035;-78
2024/01/21 13:27:42;;;;;;;23.05;12.57;;;;;;;;;;5006610;28;20041;-77
2024/01/21 13:32:54;;;;;;;27.10;12.02;;;;;;;;;;4974494;28;20043;-78
2024/01/21 13:35:21;;;;;;;23.23;12.10;;;;;;;;;;4977004;28;20117;-76
2024/01/21 13:37:48;;;;;;;24.67;11.90;;;;;;;;;;4992122;28;20531;-76
2024/01/21 13:40:16;;;;;;;21.30;12.20;;;;;;;;;;4992010;28;20503;-77
2024/01/21 13:42:42;;;;;;;20.33;11.32;;;;;;;;;;4995494;28;20053;-76
2024/01/21 13:45:09;;;;;;;23.30;12.30;;;;;;;;;;4991497;28;20117;-76
2024/01/21 13:47:35;;;;;;;26.40;12.05;;;;;;;;;;4992817;28;20039;-76
2024/01/21 13:50:03;;;;;;;25.65;12.63;;;;;;;;;;4990037;28;20038;-77
2024/01/21 13:52:29;;;;;;;28.83;12.95;;;;;;;;;;4972662;28;20118;-78
2024/01/21 13:54:57;;;;;;;24.17;12.30;;;;;;;;;;4989719;28;20038;-78
2024/01/21 13:57:26;;;;;;;25.33;12.15;;;;;;;;;;5016627;28;20026;-77
2024/01/21 13:59:52;;;;;;;25.15;12.18;;;;;;;;;;5003667;28;20110;-77
2024/01/21 14:02:18;;;;;;;22.35;12.13;;;;;;;;;;5002144;28;20109;-77
2024/01/21 14:04:45;;;;;;;23.80;12.20;;;;;;;;;;5005977;28;20034;-76
2024/01/21 14:07:12;;;;;;;23.83;12.50;;;;;;;;;;4974826;28;20030;-77
2024/01/21 14:09:38;;;;;;;31.67;13.45;;;;;;;;;;4991659;28;20121;-77
2024/01/21 14:12:04;;;;;;;21.90;14.07;;;;;;;;;;4973688;28;20038;-77
2024/01/21 14:14:30;;;;;;;22.45;12.35;;;;;;;;;;4989666;28;20040;-76
2024/01/21 14:16:56;;;;;;;23.52;12.20;;;;;;;;;;5004939;28;20454;-76
2024/01/21 14:19:26;;;;;;;24.65;12.88;;;;;;;;;;5005133;28;20035;-76
2024/01/21 14:21:52;;;;;;;30.33;14.10;;;;;;;;;;5010713;28;20052;-78
2024/01/21 14:24:21;;;;;;;26.13;12.75;;;;;;;;;;5003886;28;20041;-77
2024/01/21 14:26:47;;;;;;;20.33;11.40;;;;;;;;;;4991786;28;20041;-77
2024/01/21 14:29:27;;;;;;;25.40;11.70;;;;;;;;;;4977528;28;20144;-76